Time;durP1;ratioP1;P1;durP2;ratioP2;P2;SDS_P1;SDS_P2;PMS_P1;PMS_P2;Temp;Humidity;BMP_temperature;BMP_pressure;BME280_temperature;BME280_humidity;BME280_pressure;Samples;Min_cycle;Max_cycle;Signal;HPM_P1;HPM_P2
2022/10/12 00:00:24;;;;;;;15.50;13.88;;;8.20;1.00;;;;;;5135202;27;20580;-85
2022/10/12 00:02:52;;;;;;;16.15;14.18;;;8.20;1.00;;;;;;5134867;27;20673;-86
2022/10/12 00:05:19;;;;;;;15.93;14.07;;;8.20;1.00;;;;;;5135165;27;20194;-86
2022/10/12 00:07:46;;;;;;;16.25;13.80;;;8.20;1.00;;;;;;5134695;27;20201;-86
2022/10/12 00:10:13;;;;;;;18.02;14.75;;;8.30;1.00;;;;;;5134633;27;20250;-85
2022/10/12 00:12:40;;;;;;;17.45;14.45;;;8.30;1.00;;;;;;5134969;27;20221;-86
2022/10/12 00:15:08;;;;;;;16.95;14.27;;;8.30;1.00;;;;;;5134538;27;20186;-85
2022/10/12 00:17:35;;;;;;;17.95;14.30;;;8.30;1.00;;;;;;5134679;27;20194;-85
2022/10/12 00:20:05;;;;;;;15.65;13.57;;;8.30;1.00;;;;;;5133998;27;20210;-85
2022/10/12 00:22:32;;;;;;;17.52;14.27;;;8.30;1.00;;;;;;5134148;27;20531;-85
2022/10/12 00:24:59;;;;;;;16.60;14.13;;;8.40;1.00;;;;;;5134900;27;20190;-85
2022/10/12 00:27:26;;;;;;;15.32;13.65;;;8.40;1.00;;;;;;5134327;27;20662;-85
2022/10/12 00:29:53;;;;;;;15.23;13.63;;;8.40;1.00;;;;;;5134717;27;20283;-86
2022/10/12 00:32:20;;;;;;;14.35;12.82;;;8.30;1.00;;;;;;5134253;27;20270;-86
2022/10/12 00:34:47;;;;;;;15.73;13.75;;;8.40;1.00;;;;;;5120216;27;20198;-86
2022/10/12 00:37:15;;;;;;;17.67;14.88;;;8.40;1.00;;;;;;5116200;27;20643;-86
2022/10/12 00:39:42;;;;;;;17.67;14.38;;;8.40;1.00;;;;;;5134259;27;20214;-86
2022/10/12 00:42:11;;;;;;;18.13;14.90;;;8.40;1.00;;;;;;5134043;27;20193;-85
2022/10/12 00:44:43;;;;;;;17.08;14.05;;;8.40;1.00;;;;;;5134341;27;20201;-86
2022/10/12 00:47:24;;;;;;;17.00;14.02;;;8.50;1.00;;;;;;5133997;27;20182;-85
2022/10/12 00:49:56;;;;;;;16.90;14.02;;;8.40;1.00;;;;;;5133901;27;20209;-85
2022/10/12 00:52:32;;;;;;;18.65;15.18;;;8.40;1.00;;;;;;5134144;27;20181;-85
2022/10/12 00:55:00;;;;;;;15.45;13.70;;;8.40;1.00;;;;;;5134044;27;20526;-85
2022/10/12 00:57:27;;;;;;;17.25;14.40;;;8.40;1.00;;;;;;5133785;27;20732;-86
2022/10/12 00:59:58;;;;;;;16.63;13.80;;;8.40;1.00;;;;;;5133637;27;20213;-85
2022/10/12 01:02:27;;;;;;;16.75;13.98;;;8.50;1.00;;;;;;5133685;27;20630;-85
2022/10/12 01:04:55;;;;;;;18.42;14.90;;;8.40;1.00;;;;;;5133827;27;20201;-85
2022/10/12 01:07:22;;;;;;;17.35;14.27;;;8.40;1.00;;;;;;5133406;27;20213;-85
2022/10/12 01:09:50;;;;;;;15.65;13.40;;;8.40;1.00;;;;;;5133522;27;20193;-85
2022/10/12 01:12:18;;;;;;;17.92;14.93;;;8.40;1.00;;;;;;5133920;27;20190;-85
2022/10/12 01:14:45;;;;;;;15.82;13.95;;;8.40;1.00;;;;;;5133358;27;20182;-85
2022/10/12 01:17:24;;;;;;;15.10;13.55;;;8.50;1.00;;;;;;5133637;27;20178;-85
2022/10/12 01:20:35;;;;;;;15.43;13.82;;;8.50;1.00;;;;;;5133568;27;20603;-85
2022/10/12 01:23:33;;;;;;;15.02;13.50;;;8.50;1.00;;;;;;5133368;27;20646;-85
2022/10/12 01:26:28;;;;;;;14.23;12.77;;;8.50;1.00;;;;;;5108130;27;20202;-85
2022/10/12 01:29:06;;;;;;;15.70;13.95;;;8.50;1.00;;;;;;5133367;27;20630;-86
2022/10/12 01:31:39;;;;;;;15.13;13.57;;;8.60;1.00;;;;;;5132851;27;20636;-86
2022/10/12 01:34:13;;;;;;;13.90;12.55;;;8.50;1.00;;;;;;5133173;27;20186;-86
2022/10/12 01:36:44;;;;;;;15.20;13.70;;;8.60;1.00;;;;;;5133269;27;20228;-85
2022/10/12 01:39:17;;;;;;;14.05;12.68;;;8.60;1.00;;;;;;5116568;28;20205;-85
2022/10/12 01:41:49;;;;;;;14.90;13.50;;;8.60;1.00;;;;;;5133339;28;20178;-86
2022/10/12 01:44:21;;;;;;;13.43;12.15;;;8.60;1.00;;;;;;5133304;28;20243;-85
2022/10/12 01:46:51;;;;;;;14.23;12.85;;;8.60;1.00;;;;;;5133590;28;20597;-86
2022/10/12 01:49:22;;;;;;;13.85;12.55;;;8.70;1.00;;;;;;5133384;28;20646;-86
2022/10/12 01:52:01;;;;;;;;;;;8.70;1.00;;;;;;5133012;28;20182;-85
2022/10/12 01:54:42;;;;;;;12.63;11.43;;;8.60;1.00;;;;;;5113078;28;20367;-86
2022/10/12 01:57:17;;;;;;;11.95;10.90;;;8.70;1.00;;;;;;5112606;28;20631;-86
2022/10/12 01:59:52;;;;;;;13.45;12.23;;;8.70;1.00;;;;;;5112882;28;20213;-85
2022/10/12 02:02:27;;;;;;;13.27;12.02;;;8.70;1.00;;;;;;5112896;28;20516;-86
2022/10/12 02:05:00;;;;;;;13.88;12.52;;;8.80;1.00;;;;;;5127804;28;20182;-85
2022/10/12 02:07:39;;;;;;;14.70;13.20;;;8.70;1.00;;;;;;5132772;28;20165;-86
2022/10/12 02:10:13;;;;;;;13.57;12.23;;;8.80;1.00;;;;;;5132939;28;20658;-86
2022/10/12 02:12:43;;;;;;;14.05;12.65;;;8.80;1.00;;;;;;5112436;28;20722;-86
2022/10/12 02:15:11;;;;;;;14.50;13.00;;;8.80;1.00;;;;;;5112630;28;20222;-86
2022/10/12 02:17:43;;;;;;;13.30;12.02;;;8.80;1.00;;;;;;5112289;28;20197;-86
2022/10/12 02:20:12;;;;;;;13.50;12.23;;;8.80;1.00;;;;;;5112338;28;20210;-86
2022/10/12 02:22:41;;;;;;;;;;;8.80;1.00;;;;;;5113037;28;20235;-86
2022/10/12 02:25:11;;;;;;;14.07;12.68;;;8.80;1.00;;;;;;5112208;28;20393;-86
2022/10/12 02:27:43;;;;;;;14.20;12.77;;;8.80;1.00;;;;;;5112049;28;20198;-86
2022/10/12 02:30:11;;;;;;;13.77;12.38;;;8.80;1.00;;;;;;5114835;28;20547;-85
2022/10/12 02:32:45;;;;;;;15.18;13.55;;;8.80;1.00;;;;;;5132890;28;20190;-85
2022/10/12 02:35:17;;;;;;;13.80;12.43;;;8.80;1.00;;;;;;5132299;28;20186;-85
2022/10/12 02:37:48;;;;;;;14.63;13.13;;;8.80;1.00;;;;;;5133011;28;20684;-86
2022/10/12 02:40:19;;;;;;;14.40;12.95;;;8.80;1.00;;;;;;5132803;28;20206;-85
2022/10/12 02:42:54;;;;;;;14.93;13.40;;;8.80;1.00;;;;;;5132963;28;20182;-85
2022/10/12 02:45:24;;;;;;;15.38;13.75;;;8.80;1.00;;;;;;5135618;27;20196;-86
2022/10/12 02:47:55;;;;;;;15.40;13.75;;;8.90;1.00;;;;;;5136397;27;20191;-86
2022/10/12 02:50:24;;;;;;;15.45;13.80;;;8.90;1.00;;;;;;5136524;27;20183;-86
2022/10/12 02:52:52;;;;;;;13.88;12.50;;;8.80;1.00;;;;;;5136255;27;20247;-86
2022/10/12 02:55:19;;;;;;;12.98;11.80;;;8.90;1.00;;;;;;5136599;27;20193;-86
2022/10/12 02:57:46;;;;;;;14.75;13.40;;;8.90;1.00;;;;;;5136124;27;20625;-86
2022/10/12 03:00:14;;;;;;;13.05;11.93;;;8.90;1.00;;;;;;5135848;27;20704;-86
2022/10/12 03:02:41;;;;;;;12.05;11.00;;;8.90;1.00;;;;;;5136393;27;20250;-86
2022/10/12 03:05:09;;;;;;;13.70;12.40;;;8.90;1.00;;;;;;5135703;27;20186;-86
2022/10/12 03:07:36;;;;;;;13.00;11.80;;;8.90;1.00;;;;;;5136206;27;20197;-86
2022/10/12 03:10:04;;;;;;;13.82;12.48;;;9.00;1.00;;;;;;5135964;27;20193;-85
2022/10/12 03:12:31;;;;;;;13.80;12.50;;;8.90;1.00;;;;;;5136062;27;20589;-86
2022/10/12 03:14:58;;;;;;;13.32;12.10;;;8.90;1.00;;;;;;5135474;27;20195;-86
2022/10/12 03:17:25;;;;;;;13.32;12.07;;;8.90;1.00;;;;;;5135743;27;20693;-86
2022/10/12 03:19:52;;;;;;;13.27;12.05;;;8.90;1.00;;;;;;5136105;27;20189;-86
2022/10/12 03:22:20;;;;;;;13.93;12.63;;;8.90;1.00;;;;;;5135393;27;20197;-86
2022/10/12 03:24:47;;;;;;;13.40;12.18;;;8.90;1.00;;;;;;5135363;27;20673;-85
2022/10/12 03:27:15;;;;;;;14.68;13.27;;;8.90;1.00;;;;;;5135827;27;20243;-85
2022/10/12 03:29:42;;;;;;;13.57;12.30;;;8.90;1.00;;;;;;5135704;27;20368;-85
2022/10/12 03:32:09;;;;;;;12.73;11.55;;;8.90;1.00;;;;;;5135753;27;20194;-86
2022/10/12 03:34:36;;;;;;;14.65;13.25;;;9.10;1.00;;;;;;5135530;27;20650;-86
2022/10/12 03:37:03;;;;;;;12.52;11.38;;;9.00;1.00;;;;;;5135803;27;20225;-85
2022/10/12 03:39:31;;;;;;;13.95;12.63;;;9.00;27.10;;;;;;5135322;27;20186;-85
2022/10/12 03:41:58;;;;;;;13.25;12.05;;;9.00;1.00;;;;;;5135261;27;20301;-86
2022/10/12 03:44:25;;;;;;;13.40;12.18;;;8.80;1.00;;;;;;5135264;27;20190;-85
2022/10/12 03:46:52;;;;;;;12.82;11.68;;;8.80;1.00;;;;;;5135181;27;20190;-86
2022/10/12 03:49:20;;;;;;;13.57;12.32;;;8.80;1.00;;;;;;5135143;27;20665;-86
2022/10/12 03:51:47;;;;;;;12.95;11.75;;;8.80;1.00;;;;;;5135241;27;20198;-86
2022/10/12 03:54:14;;;;;;;13.50;12.23;;;8.80;1.00;;;;;;5134770;27;20194;-86
2022/10/12 03:56:42;;;;;;;13.77;12.48;;;8.80;1.00;;;;;;5135214;27;20594;-86
2022/10/12 03:59:09;;;;;;;13.20;11.95;;;8.80;1.00;;;;;;5134456;27;20182;-85
2022/10/12 04:01:36;;;;;;;14.05;12.65;;;8.80;1.00;;;;;;5146934;27;20210;-86
2022/10/12 04:04:04;;;;;;;14.40;12.93;;;8.80;1.00;;;;;;5135061;27;20585;-86
2022/10/12 04:06:31;;;;;;;12.95;11.73;;;8.80;1.00;;;;;;5134630;27;20190;-86
2022/10/12 04:08:58;;;;;;;13.50;12.23;;;8.80;1.00;;;;;;5134030;27;20676;-86
2022/10/12 04:11:26;;;;;;;13.63;12.32;;;8.70;1.00;;;;;;5133714;27;20680;-86
2022/10/12 04:13:54;;;;;;;13.27;12.00;;;8.70;1.00;;;;;;5138389;27;20192;-84
2022/10/12 04:16:21;;;;;;;13.07;11.85;;;8.70;1.00;;;;;;5138387;27;20197;-87
2022/10/12 04:18:48;;;;;;;13.68;12.40;;;8.70;1.00;;;;;;5155062;27;20209;-85
2022/10/12 04:21:17;;;;;;;12.73;11.55;;;8.70;1.00;;;;;;5143263;27;20206;-87
2022/10/12 04:23:44;;;;;;;14.30;12.93;;;8.70;1.00;;;;;;5132576;27;20186;-87
2022/10/12 04:26:11;;;;;;;14.18;12.80;;;8.70;1.00;;;;;;5135263;27;20189;-86
2022/10/12 04:28:38;;;;;;;30.27;17.23;;;8.70;1.00;;;;;;5132850;27;20583;-86
2022/10/12 04:31:06;;;;;;;18.80;16.90;;;8.70;1.00;;;;;;5135177;27;20703;-86
2022/10/12 04:33:33;;;;;;;12.90;11.77;;;8.70;1.00;;;;;;5134904;27;20201;-86
2022/10/12 04:36:00;;;;;;;10.75;9.90;;;8.60;1.00;;;;;;5133742;27;20218;-86
2022/10/12 04:38:27;;;;;;;12.90;11.77;;;8.70;1.00;;;;;;5141599;27;20185;-86
2022/10/12 04:40:54;;;;;;;13.50;12.32;;;8.70;1.00;;;;;;5134192;27;20210;-86
2022/10/12 04:43:21;;;;;;;13.77;12.57;;;8.70;1.00;;;;;;5134565;27;20190;-86
2022/10/12 04:45:55;;;;;;;12.02;11.05;;;8.70;1.00;;;;;;5134280;27;20201;-85
2022/10/12 04:48:23;;;;;;;13.73;12.52;;;8.70;1.00;;;;;;5134515;27;20206;-86
2022/10/12 04:50:51;;;;;;;13.50;12.30;;;8.70;1.00;;;;;;5134395;27;20660;-86
2022/10/12 04:53:18;;;;;;;12.93;11.80;;;8.60;1.00;;;;;;5133914;27;20190;-86
2022/10/12 04:55:45;;;;;;;13.15;11.98;;;8.60;1.00;;;;;;5133937;27;20197;-86
2022/10/12 04:58:13;;;;;;;14.02;12.82;;;8.70;1.00;;;;;;5133952;27;20194;-86
2022/10/12 05:00:40;;;;;;;13.20;12.05;;;8.70;1.00;;;;;;5133132;27;20205;-86
2022/10/12 05:03:07;;;;;;;13.35;12.15;;;8.70;1.00;;;;;;5133350;27;20190;-86
2022/10/12 05:05:35;;;;;;;12.20;11.15;;;8.70;1.00;;;;;;5133803;27;20198;-86
2022/10/12 05:08:02;;;;;;;13.25;12.10;;;8.70;1.00;;;;;;5132317;27;20557;-86
2022/10/12 05:10:29;;;;;;;12.73;11.63;;;8.80;1.00;;;;;;5135802;27;20186;-87
2022/10/12 05:12:56;;;;;;;13.35;12.15;;;8.80;1.00;;;;;;5149361;27;20200;-86
2022/10/12 05:15:23;;;;;;;12.55;11.45;;;8.80;1.00;;;;;;5133080;27;20194;-87
2022/10/12 05:17:51;;;;;;;13.65;12.45;;;8.80;1.00;;;;;;5133610;27;20203;-87
2022/10/12 05:20:18;;;;;;;11.52;10.57;;;8.80;1.00;;;;;;5133539;27;20200;-87
2022/10/12 05:22:46;;;;;;;13.05;11.93;;;8.90;1.00;;;;;;5133448;27;20214;-87
2022/10/12 05:25:13;;;;;;;12.10;11.05;;;8.80;1.00;;;;;;5133263;27;20197;-86
2022/10/12 05:27:41;;;;;;;12.75;11.65;;;8.90;1.00;;;;;;5133203;27;20201;-87
2022/10/12 05:30:08;;;;;;;14.35;13.07;;;8.90;1.00;;;;;;5133317;27;20207;-87
2022/10/12 05:32:35;;;;;;;12.68;11.57;;;8.80;1.00;;;;;;5133696;27;20196;-86
2022/10/12 05:35:02;;;;;;;12.80;11.70;;;8.80;1.00;;;;;;5133724;27;20201;-86
2022/10/12 05:37:30;;;;;;;11.70;10.73;;;8.80;1.00;;;;;;5132855;27;20253;-87
2022/10/12 05:40:00;;;;;;;12.77;11.65;;;8.80;1.00;;;;;;5133431;28;20201;-87
2022/10/12 05:42:35;;;;;;;13.52;12.35;;;8.80;1.00;;;;;;5136788;28;20201;-90
2022/10/12 05:45:03;;;;;;;13.48;12.30;;;8.80;1.00;;;;;;5138004;28;20182;-91
2022/10/12 05:47:41;;;;;;;13.10;12.00;;;8.80;1.00;;;;;;5139616;28;20261;-91
2022/10/12 05:50:24;;;;;;;13.20;12.05;;;8.80;1.00;;;;;;5140867;28;20186;-88
2022/10/12 05:52:51;;;;;;;12.48;11.40;;;8.80;1.00;;;;;;5138418;28;20182;-86
2022/10/12 05:55:23;;;;;;;13.18;12.02;;;8.80;1.00;;;;;;5136387;28;20197;-88
2022/10/12 05:57:59;;;;;;;12.15;11.13;;;8.80;1.00;;;;;;5138884;28;20186;-86
2022/10/12 06:00:30;;;;;;;12.93;11.82;;;8.80;1.00;;;;;;5139598;28;20208;-87
2022/10/12 06:03:08;;;;;;;11.85;10.85;;;8.80;1.00;;;;;;5137999;28;20274;-91
2022/10/12 06:05:40;;;;;;;14.05;12.82;;;8.80;1.00;;;;;;5137011;28;20166;-87
2022/10/12 06:08:13;;;;;;;14.55;13.30;;;8.70;1.00;;;;;;5137201;28;20255;-88
2022/10/12 06:10:46;;;;;;;13.10;12.00;;;8.80;1.00;;;;;;5136008;28;20535;-89
2022/10/12 06:13:24;;;;;;;;;;;8.80;1.00;;;;;;5137133;28;20197;-90
2022/10/12 06:16:02;;;;;;;34.15;18.20;;;8.90;1.00;;;;;;5139778;28;20402;-88
2022/10/12 06:18:29;;;;;;;13.50;12.27;;;8.90;1.00;;;;;;5135866;27;20610;-87
2022/10/12 06:20:56;;;;;;;14.20;12.93;;;8.90;1.00;;;;;;5140906;27;20190;-87
2022/10/12 06:23:23;;;;;;;;;;;9.00;1.00;;;;;;5143959;27;20193;-89
2022/10/12 06:25:56;;;;;;;13.43;12.23;;;9.00;1.00;;;;;;5144249;27;20245;-91
2022/10/12 06:28:25;;;;;;;13.15;12.00;;;9.00;1.00;;;;;;5136632;27;20536;-91
2022/10/12 06:30:53;;;;;;;12.15;11.10;;;9.00;1.00;;;;;;5145214;27;20597;-87
2022/10/12 06:33:20;;;;;;;12.02;11.02;;;9.00;1.00;;;;;;5146209;27;20180;-88
2022/10/12 06:35:47;;;;;;;14.25;13.05;;;9.00;1.00;;;;;;5144017;27;20193;-88
2022/10/12 06:38:24;;;;;;;11.93;10.95;;;9.10;1.00;;;;;;5140461;27;20185;-89
2022/10/12 06:40:52;;;;;;;16.75;15.20;;;9.10;1.00;;;;;;5148263;27;20181;-87
2022/10/12 06:43:21;;;;;;;14.07;12.85;;;9.20;1.00;;;;;;5146283;27;20190;-86
2022/10/12 06:45:49;;;;;;;11.88;10.93;;;9.20;1.00;;;;;;5143276;27;20353;-87
2022/10/12 06:48:16;;;;;;;13.00;11.93;;;9.30;1.00;;;;;;5149860;27;20190;-87
2022/10/12 06:50:45;;;;;;;12.18;11.20;;;9.40;1.00;;;;;;5140327;27;20199;-87
2022/10/12 06:53:21;;;;;;;17.15;15.60;;;9.40;1.00;;;;;;5144814;27;20201;-90
2022/10/12 06:56:19;;;;;;;10.25;9.48;;;9.40;1.00;;;;;;5140340;27;20588;-91
2022/10/12 06:58:48;;;;;;;13.83;12.67;;;9.40;1.00;;;;;;5141469;27;20198;-89
2022/10/12 07:04:14;;;;;;;14.70;13.40;;;9.50;1.00;;;;;;5132725;27;20202;-89
2022/10/12 07:06:41;;;;;;;;;;;9.50;1.00;;;;;;5117376;28;20194;-85
2022/10/12 07:09:09;;;;;;;14.60;13.40;;;9.60;1.00;;;;;;5122441;28;20664;-86
2022/10/12 07:11:42;;;;;;;12.00;11.05;;;9.70;1.00;;;;;;5116560;28;20193;-91
2022/10/12 07:14:11;;;;;;;14.00;12.85;;;9.70;1.00;;;;;;5123948;28;20205;-88
2022/10/12 07:16:41;;;;;;;12.05;11.05;;;9.80;1.00;;;;;;5120483;28;20191;-92
2022/10/12 07:19:08;;;;;;;10.55;9.75;;;9.90;1.00;;;;;;5120266;28;20209;-86
2022/10/12 07:21:35;;;;;;;11.48;10.57;;;9.90;1.00;;;;;;5115524;28;20222;-85
2022/10/12 07:24:02;;;;;;;12.25;11.25;;;10.00;1.00;;;;;;5117548;28;20198;-88
2022/10/12 07:26:45;;;;;;;11.52;10.63;;;10.00;1.00;;;;;;5126246;28;20198;-89
2022/10/12 07:29:14;;;;;;;12.18;11.18;;;10.20;1.00;;;;;;5124232;28;20207;-86
2022/10/12 07:31:41;;;;;;;11.15;10.25;;;10.20;1.00;;;;;;5125890;28;20605;-87
2022/10/12 07:34:08;;;;;;;13.18;12.00;;;10.30;1.00;;;;;;5123351;28;20236;-87
2022/10/12 07:36:43;;;;;;;10.43;9.60;;;10.30;1.00;;;;;;5123021;28;20226;-89
2022/10/12 07:39:15;;;;;;;11.52;10.63;;;10.50;1.00;;;;;;5124944;28;20182;-89
2022/10/12 07:41:43;;;;;;;10.43;9.65;;;10.60;1.00;;;;;;5123449;28;20199;-88
2022/10/12 07:44:11;;;;;;;11.23;10.35;;;10.60;1.00;;;;;;5116382;28;20198;-87
2022/10/12 07:46:39;;;;;;;11.23;10.35;;;10.70;1.00;;;;;;5117071;28;20194;-87
2022/10/12 07:49:07;;;;;;;11.75;10.85;;;10.80;1.00;;;;;;5119183;28;20551;-90
2022/10/12 07:51:34;;;;;;;9.73;9.02;;;10.90;1.00;;;;;;5121252;28;20575;-90
2022/10/12 07:54:18;;;;;;;9.73;9.02;;;11.00;1.00;;;;;;5122472;28;20194;-91
2022/10/12 07:56:45;;;;;;;10.02;9.32;;;11.00;1.00;;;;;;5119248;28;20191;-87
2022/10/12 07:59:14;;;;;;;;;;;11.10;1.00;;;;;;5124560;28;20201;-89
2022/10/12 08:01:56;;;;;;;37.92;20.45;;;11.20;1.00;;;;;;5116482;28;20424;-88
2022/10/12 08:04:32;;;;;;;12.48;11.38;;;11.30;1.00;;;;;;5122571;28;20178;-88
2022/10/12 08:07:01;;;;;;;12.32;11.25;;;11.40;1.00;;;;;;5122086;28;20255;-91
2022/10/12 08:09:28;;;;;;;12.95;11.80;;;11.50;1.00;;;;;;5127757;27;20198;-86
2022/10/12 08:11:56;;;;;;;13.45;12.23;;;11.60;1.00;;;;;;5126522;27;20198;-91
2022/10/12 08:14:26;;;;;;;12.50;11.40;;;11.60;1.00;;;;;;5145931;27;20197;-89
2022/10/12 08:16:54;;;;;;;12.88;11.75;;;11.70;1.00;;;;;;5140705;27;20174;-85
2022/10/12 08:19:21;;;;;;;10.35;9.55;;;11.80;1.00;;;;;;5138398;27;20193;-87
2022/10/12 08:21:51;;;;;;;10.38;9.60;;;11.90;1.00;;;;;;5137362;27;20225;-85
2022/10/12 08:24:18;;;;;;;10.77;9.95;;;11.90;1.00;;;;;;5117069;27;20203;-86
2022/10/12 08:26:45;;;;;;;11.00;10.18;;;12.00;1.00;;;;;;5120237;28;20677;-86
2022/10/12 08:29:13;;;;;;;11.23;10.35;;;12.10;1.00;;;;;;5119243;28;20204;-90
2022/10/12 08:31:40;;;;;;;11.90;10.90;;;12.10;1.00;;;;;;5120134;28;20718;-87
2022/10/12 08:34:19;;;;;;;13.07;11.93;;;12.20;1.00;;;;;;5119935;28;20201;-93
2022/10/12 08:36:46;;;;;;;12.18;11.15;;;12.30;1.00;;;;;;5117236;28;20232;-89
2022/10/12 08:39:13;;;;;;;12.15;11.13;;;12.30;1.00;;;;;;5120261;28;20244;-87
2022/10/12 08:42:08;;;;;;;11.73;10.77;;;12.40;1.00;;;;;;5121521;28;20199;-87
2022/10/12 08:45:04;;;;;;;12.15;11.13;;;12.40;1.00;;;;;;5114061;28;20206;-87
2022/10/12 08:47:39;;;;;;;12.27;11.20;;;12.50;1.00;;;;;;5122860;28;20555;-86
2022/10/12 08:50:26;;;;;;;13.32;12.13;;;12.60;1.00;;;;;;5123555;28;20196;-87
2022/10/12 08:52:58;;;;;;;13.25;12.02;;;12.60;1.00;;;;;;5116889;28;20179;-87
2022/10/12 08:55:39;;;;;;;13.73;12.45;;;12.70;1.00;;;;;;5122019;28;20182;-88
2022/10/12 08:58:14;;;;;;;13.43;12.23;;;12.70;1.00;;;;;;5119687;28;20190;-88
2022/10/12 09:00:44;;;;;;;14.07;12.70;;;12.80;1.00;;;;;;5117852;28;20209;-90
2022/10/12 09:03:42;;;;;;;14.10;12.70;;;12.80;1.00;;;;;;5120828;28;20218;-90
2022/10/12 09:06:16;;;;;;;13.55;12.30;;;12.90;1.00;;;;;;5110810;28;20191;-87
2022/10/12 09:09:04;;;;;;;13.88;12.57;;;12.90;1.00;;;;;;5117318;28;20319;-86
2022/10/12 09:11:57;;;;;;;13.88;12.57;;;13.00;1.00;;;;;;5122994;28;20460;-91
2022/10/12 09:14:39;;;;;;;13.45;12.18;;;13.00;1.00;;;;;;5122235;28;20210;-90
2022/10/12 09:17:30;;;;;;;13.20;12.00;;;13.00;1.00;;;;;;5117701;28;20187;-85
2022/10/12 09:20:04;;;;;;;13.45;12.18;;;13.10;1.00;;;;;;5122150;28;20194;-87
2022/10/12 09:22:41;;;;;;;12.75;11.63;;;13.10;1.00;;;;;;5120145;28;20207;-90
2022/10/12 09:25:16;;;;;;;13.27;12.05;;;13.10;1.00;;;;;;5113146;28;20194;-89
2022/10/12 09:27:47;;;;;;;13.60;12.30;;;13.20;1.00;;;;;;5119244;28;20642;-85
2022/10/12 09:30:16;;;;;;;13.07;11.82;;;13.20;1.00;;;;;;5118744;28;20200;-87
2022/10/12 09:33:18;;;;;;;13.40;12.15;;;13.30;1.00;;;;;;5124719;28;20194;-88
2022/10/12 09:35:57;;;;;;;13.20;12.00;;;13.40;1.00;;;;;;5114977;28;20202;-89
2022/10/12 09:38:35;;;;;;;12.75;11.63;;;13.50;1.00;;;;;;5081995;28;20620;-90
2022/10/12 09:41:02;;;;;;;13.02;11.82;;;13.50;1.00;;;;;;5074910;28;20200;-85
2022/10/12 09:43:29;;;;;;;13.27;12.02;;;13.50;1.00;;;;;;5083813;28;20216;-87
2022/10/12 09:49:15;;;;;;;14.63;13.10;;;13.60;1.00;;;;;;5082705;28;20204;-89
2022/10/12 09:51:43;;;;;;;14.15;12.70;;;13.70;1.00;;;;;;5076240;28;20541;-90
2022/10/12 09:54:17;;;;;;;14.43;12.93;;;13.80;1.00;;;;;;5081818;28;20221;-89
2022/10/12 09:57:00;;;;;;;15.13;13.50;;;13.90;1.00;;;;;;5079969;28;20183;-89
2022/10/12 09:59:33;;;;;;;14.82;13.15;;;14.00;1.00;;;;;;5081828;28;20674;-90
2022/10/12 10:02:16;;;;;;;17.27;13.88;;;14.10;1.00;;;;;;5084613;28;20195;-86
2022/10/12 10:04:45;;;;;;;22.95;15.93;;;14.20;1.00;;;;;;5103473;28;20187;-90
2022/10/12 10:07:21;;;;;;;22.40;15.95;;;14.30;1.00;;;;;;5106493;28;20203;-87
2022/10/12 10:10:14;;;;;;;24.80;16.60;;;14.40;1.00;;;;;;5103668;28;20179;-88
2022/10/12 10:12:51;;;;;;;22.23;15.77;;;14.50;1.00;;;;;;5103011;28;20195;-85
2022/10/12 10:15:26;;;;;;;24.20;16.55;;;14.60;1.00;;;;;;5100919;28;20182;-90
2022/10/12 10:18:00;;;;;;;24.27;16.42;;;14.70;1.00;;;;;;5113284;28;20175;-89
2022/10/12 10:20:34;;;;;;;25.65;16.95;;;14.80;1.00;;;;;;5103431;28;20237;-88
2022/10/12 10:23:04;;;;;;;25.38;16.77;;;14.90;1.00;;;;;;5100386;28;20207;-86
2022/10/12 10:26:01;;;;;;;24.27;16.52;;;15.00;1.00;;;;;;5091062;28;20192;-87
2022/10/12 10:28:32;;;;;;;22.98;16.08;;;15.10;1.00;;;;;;5081973;28;20202;-91
2022/10/12 10:31:01;;;;;;;24.33;16.40;;;15.10;1.00;;;;;;5079325;28;20591;-87
2022/10/12 10:33:34;;;;;;;24.00;16.60;;;15.10;1.00;;;;;;5093923;28;20199;-90
2022/10/12 10:36:05;;;;;;;22.83;16.02;;;15.20;1.00;;;;;;5104180;28;20179;-85
2022/10/12 10:39:06;;;;;;;22.35;15.88;;;15.30;1.00;;;;;;5121903;28;20179;-89
2022/10/12 10:41:38;;;;;;;24.58;16.70;;;15.40;1.00;;;;;;5110071;28;20208;-85
2022/10/12 10:44:06;;;;;;;25.15;16.83;;;15.40;1.00;;;;;;5117679;28;20271;-86
2022/10/12 10:46:36;;;;;;;24.52;16.70;;;15.40;1.00;;;;;;5119687;28;20203;-89
2022/10/12 10:49:06;;;;;;;24.90;16.75;;;15.50;1.00;;;;;;5120957;28;20228;-87
2022/10/12 10:51:50;;;;;;;24.08;16.35;;;15.50;1.00;;;;;;5115980;28;20183;-86
2022/10/12 10:54:37;;;;;;;25.55;17.02;;;15.60;1.00;;;;;;5126109;28;20187;-89
2022/10/12 10:57:12;;;;;;;25.55;16.98;;;15.70;1.00;;;;;;5124806;27;20204;-85
2022/10/12 10:59:50;;;;;;;26.38;17.13;;;15.80;1.00;;;;;;5122207;28;20194;-86
2022/10/12 11:02:43;;;;;;;28.20;17.80;;;15.80;1.00;;;;;;5127894;27;20202;-91
2022/10/12 11:05:15;;;;;;;29.05;18.27;;;15.90;1.00;;;;;;5138238;27;20251;-87
2022/10/12 11:07:49;;;;;;;27.95;17.88;;;16.00;1.00;;;;;;5144940;27;20178;-89
2022/10/12 11:10:23;;;;;;;27.27;17.52;;;16.10;1.00;;;;;;5139341;27;20177;-85
2022/10/12 11:13:12;;;;;;;28.67;18.15;;;16.20;1.00;;;;;;5137043;27;20186;-87
2022/10/12 11:15:44;;;;;;;30.65;18.83;;;16.30;1.00;;;;;;5144193;27;20189;-86
2022/10/12 11:18:19;;;;;;;32.25;19.27;;;16.40;1.00;;;;;;5145486;27;20189;-90
2022/10/12 11:21:02;;;;;;;31.08;19.05;;;16.60;1.00;;;;;;5141605;27;20216;-89
2022/10/12 11:23:34;;;;;;;29.98;18.58;;;16.70;1.00;;;;;;5141487;27;20313;-87
2022/10/12 11:26:09;;;;;;;31.15;19.08;;;16.90;1.00;;;;;;5143794;27;20182;-90
2022/10/12 11:28:39;;;;;;;28.17;17.92;;;17.20;1.00;;;;;;5142914;27;20185;-86
2022/10/12 11:31:23;;;;;;;30.48;18.77;;;17.50;1.00;;;;;;5137741;27;20193;-85
2022/10/12 11:33:50;;;;;;;36.85;20.60;;;17.70;1.00;;;;;;5142725;27;20178;-87
2022/10/12 11:36:21;;;;;;;37.85;20.70;;;17.70;1.00;;;;;;5142139;27;20218;-86
2022/10/12 11:39:03;;;;;;;38.53;20.92;;;17.70;1.00;;;;;;5140881;27;20638;-87
2022/10/12 11:41:37;;;;;;;37.40;20.70;;;17.60;1.00;;;;;;5132310;27;20241;-87
2022/10/12 11:44:17;;;;;;;34.97;20.05;;;17.50;1.00;;;;;;5121995;28;20214;-87
2022/10/12 11:47:00;;;;;;;;;;;;;;;;;;;;;
2022/10/12 11:49:31;;;;;;;34.38;19.73;;;17.50;1.00;;;;;;5121437;28;20234;-89
2022/10/12 11:52:00;;;;;;;30.63;18.73;;;17.40;1.00;;;;;;5123948;28;20267;-87
2022/10/12 11:54:45;;;;;;;32.20;19.25;;;17.40;1.00;;;;;;5114360;28;20213;-87
2022/10/12 11:57:16;;;;;;;33.95;19.52;;;17.40;1.00;;;;;;5119675;28;20196;-87
2022/10/12 11:59:54;;;;;;;36.00;20.33;;;17.50;1.00;;;;;;5118634;28;20232;-85
2022/10/12 12:02:26;;;;;;;37.80;20.67;;;17.50;1.00;;;;;;5123399;28;20266;-86
2022/10/12 12:04:59;;;;;;;41.40;21.52;;;17.50;1.00;;;;;;5117373;28;20600;-87
2022/10/12 12:07:44;;;;;;;38.83;20.90;;;17.50;1.00;;;;;;5119673;28;20190;-87
2022/10/12 12:10:53;;;;;;;40.13;21.17;;;17.50;1.00;;;;;;5120130;28;20209;-87
2022/10/12 12:13:25;;;;;;;44.85;22.30;;;17.60;1.00;;;;;;5113984;28;20194;-88
2022/10/12 12:16:30;;;;;;;43.15;21.98;;;17.60;1.00;;;;;;5127754;28;20182;-85
2022/10/12 12:19:15;;;;;;;42.03;21.70;;;17.70;1.00;;;;;;5124120;28;20621;-88
2022/10/12 12:22:15;;;;;;;39.95;21.33;;;17.80;1.00;;;;;;5120915;28;20167;-90
2022/10/12 12:24:53;;;;;;;40.40;21.48;;;17.80;1.00;;;;;;5116846;28;20207;-85
2022/10/12 12:27:37;;;;;;;43.08;22.02;;;17.80;1.00;;;;;;5121456;27;20642;-86
2022/10/12 12:30:20;;;;;;;43.90;22.15;;;17.80;1.00;;;;;;5139993;27;20186;-85
2022/10/12 12:32:50;;;;;;;41.90;21.52;;;17.70;1.00;;;;;;5115874;28;20213;-87
2022/10/12 12:35:30;;;;;;;40.22;21.20;;;17.60;1.00;;;;;;5120215;28;20226;-88
2022/10/12 12:38:24;;;;;;;38.53;20.67;;;17.50;1.00;;;;;;5121473;28;20218;-87
2022/10/12 12:41:09;;;;;;;39.53;21.05;;;17.50;1.00;;;;;;5121551;28;20167;-87
2022/10/12 12:43:58;;;;;;;39.25;21.15;;;17.60;1.00;;;;;;5119635;28;20305;-88
2022/10/12 12:46:50;;;;;;;37.55;20.80;;;17.80;1.00;;;;;;5120006;28;20206;-87
2022/10/12 12:49:29;;;;;;;38.17;20.88;;;17.90;1.00;;;;;;5118796;28;20198;-92
2022/10/12 12:51:58;;;;;;;38.13;20.70;;;17.90;1.00;;;;;;5113390;28;20195;-87
2022/10/12 12:54:27;;;;;;;40.00;21.42;;;17.90;1.00;;;;;;5125394;28;20208;-90
2022/10/12 12:57:36;;;;;;;37.10;20.73;;;17.90;1.00;;;;;;5115613;28;20200;-86
2022/10/12 13:00:25;;;;;;;40.08;21.33;;;17.90;1.00;;;;;;5121058;28;20647;-85
2022/10/12 13:03:14;;;;;;;38.03;20.73;;;17.90;1.00;;;;;;5112022;28;20194;-87
2022/10/12 13:06:18;;;;;;;38.42;21.00;;;18.00;1.00;;;;;;5122075;28;20525;-87
2022/10/12 13:09:28;;;;;;;40.60;21.40;;;17.90;1.00;;;;;;5091002;28;20186;-89
2022/10/12 13:12:12;;;;;;;40.13;21.42;;;17.90;1.00;;;;;;5123918;28;20203;-89
2022/10/12 13:15:02;;;;;;;38.45;20.95;;;17.90;1.00;;;;;;5127165;27;20186;-86
2022/10/12 13:17:58;;;;;;;38.25;20.90;;;17.90;1.00;;;;;;5131857;27;20189;-89
2022/10/12 13:23:37;;;;;;;41.75;21.73;;;17.70;1.00;;;;;;5085755;27;20241;-89
2022/10/12 13:26:09;;;;;;;42.35;21.73;;;17.60;1.00;;;;;;5149025;27;20207;-86